Time;durP1;ratioP1;P1;durP2;ratioP2;P2;SDS_P1;SDS_P2;PMS_P1;PMS_P2;Temp;Humidity;BMP_temperature;BMP_pressure;BME280_temperature;BME280_humidity;BME280_pressure;Samples;Min_cycle;Max_cycle;Signal;HPM_P1;HPM_P2
2022/03/23 00:02:03;;;;;;;54.47;22.98;;;;;;;6.68;80.12;103200.13;5085650;28;20111;-81
2022/03/23 00:04:31;;;;;;;59.22;25.67;;;;;;;6.63;79.72;103198.00;5060043;28;20044;-83
2022/03/23 00:07:00;;;;;;;52.25;23.60;;;;;;;6.57;79.19;103206.31;5069519;28;20576;-83
2022/03/23 00:09:28;;;;;;;52.60;24.48;;;;;;;6.58;79.93;103200.28;5080357;28;20064;-82
2022/03/23 00:12:16;;;;;;;52.72;25.98;;;;;;;6.50;79.83;103209.31;5077362;28;20791;-83
2022/03/23 00:14:46;;;;;;;56.55;24.63;;;;;;;6.45;79.70;103200.28;5059809;28;20049;-81
2022/03/23 00:17:15;;;;;;;51.22;23.48;;;;;;;6.40;79.67;103205.19;5081387;28;20097;-82
2022/03/23 00:19:45;;;;;;;51.53;24.42;;;;;;;6.41;80.24;103203.47;5085957;28;20048;-82
2022/03/23 00:22:17;;;;;;;52.20;23.58;;;;;;;6.33;79.71;103197.75;5069074;28;20044;-83
2022/03/23 00:24:45;;;;;;;52.92;23.23;;;;;;;6.30;79.72;103199.22;5069591;28;20045;-82
2022/03/23 00:27:14;;;;;;;57.78;25.92;;;;;;;6.26;79.74;103202.44;5079858;28;20054;-82
2022/03/23 00:29:44;;;;;;;59.03;25.83;;;;;;;6.20;80.42;103203.84;5080352;28;20074;-82
2022/03/23 00:32:15;;;;;;;51.53;24.10;;;;;;;6.16;79.69;103203.53;5073250;28;20086;-83
2022/03/23 00:34:43;;;;;;;50.55;23.80;;;;;;;6.11;80.08;103192.81;5081061;28;20049;-82
2022/03/23 00:37:14;;;;;;;58.63;25.08;;;;;;;6.10;80.53;103196.19;5078037;28;20054;-82
2022/03/23 00:39:43;;;;;;;48.83;23.88;;;;;;;6.06;80.84;103194.19;5078400;28;20054;-82
2022/03/23 00:42:11;;;;;;;57.03;23.95;;;;;;;6.04;81.15;103200.09;5083480;28;20056;-82
2022/03/23 00:44:39;;;;;;;56.38;25.67;;;;;;;6.00;80.79;103200.66;5078944;28;20052;-82
2022/03/23 00:47:08;;;;;;;55.08;24.27;;;;;;;5.98;80.54;103202.25;5087607;28;20056;-83
2022/03/23 00:49:39;;;;;;;53.70;23.75;;;;;;;5.94;80.86;103201.16;5084024;28;20079;-82
2022/03/23 00:52:07;;;;;;;47.97;23.08;;;;;;;5.90;80.68;103199.13;5085891;28;20059;-81
2022/03/23 00:54:36;;;;;;;55.50;23.63;;;;;;;5.84;80.51;103198.66;5088198;28;20044;-82
2022/03/23 00:57:06;;;;;;;53.78;25.30;;;;;;;5.82;80.85;103197.66;5083455;28;20135;-82
2022/03/23 00:59:37;;;;;;;51.42;22.38;;;;;;;5.79;81.28;103187.94;5084644;28;20083;-83
2022/03/23 01:02:09;;;;;;;53.33;26.27;;;;;;;5.81;81.59;103201.06;5083664;28;20043;-82
2022/03/23 01:04:39;;;;;;;52.42;23.13;;;;;;;5.80;81.59;103194.03;5066757;28;20434;-82
2022/03/23 01:07:09;;;;;;;53.55;23.77;;;;;;;5.74;80.99;103204.03;5062256;28;20180;-83
2022/03/23 01:09:37;;;;;;;56.00;23.40;;;;;;;5.71;81.19;103193.41;5084925;28;20052;-82
2022/03/23 01:12:10;;;;;;;62.67;25.10;;;;;;;5.69;80.74;103193.28;5080822;28;20040;-81
2022/03/23 01:14:38;;;;;;;58.00;24.70;;;;;;;5.69;81.27;103190.69;5076900;28;20059;-83
2022/03/23 01:17:08;;;;;;;55.25;25.90;;;;;;;5.68;81.29;103190.56;5083925;28;20109;-82
2022/03/23 01:19:36;;;;;;;62.13;26.00;;;;;;;5.71;82.01;103189.09;5082822;28;20036;-82
2022/03/23 01:22:06;;;;;;;64.30;26.70;;;;;;;5.65;80.95;103187.75;5076635;28;20055;-82
2022/03/23 01:24:37;;;;;;;63.50;26.98;;;;;;;5.65;81.55;103187.75;5057262;28;20079;-83
2022/03/23 01:27:09;;;;;;;61.20;25.90;;;;;;;5.59;81.26;103194.34;5087573;28;20084;-83
2022/03/23 01:29:37;;;;;;;54.60;25.80;;;;;;;5.55;81.71;103189.72;5073825;28;20052;-75
2022/03/23 01:32:06;;;;;;;54.38;23.80;;;;;;;5.49;81.11;103186.66;5074678;28;20081;-76
2022/03/23 01:34:34;;;;;;;64.70;27.15;;;;;;;5.49;81.54;103181.47;5074877;28;20060;-76
2022/03/23 01:37:03;;;;;;;57.65;24.88;;;;;;;5.46;81.58;103176.03;5081895;28;20047;-83
2022/03/23 01:39:32;;;;;;;67.10;27.70;;;;;;;5.44;81.32;103176.72;5087509;28;20090;-84
2022/03/23 01:42:00;;;;;;;64.13;27.92;;;;;;;5.43;81.66;103185.31;5091037;28;20133;-82
2022/03/23 01:44:29;;;;;;;58.85;24.17;;;;;;;5.40;81.34;103187.72;5083516;28;20052;-83
2022/03/23 01:47:02;;;;;;;64.00;27.35;;;;;;;5.38;81.61;103179.78;5076886;28;20041;-82
2022/03/23 01:49:30;;;;;;;62.80;27.23;;;;;;;5.34;81.25;103176.88;5064662;28;20229;-83
2022/03/23 01:52:00;;;;;;;66.63;28.67;;;;;;;5.30;81.77;103183.53;5079271;28;20079;-83
2022/03/23 01:54:28;;;;;;;53.75;26.23;;;;;;;5.28;81.37;103176.44;5084613;28;20193;-82
2022/03/23 01:56:59;;;;;;;51.15;24.40;;;;;;;5.27;81.67;103185.94;5083593;28;20040;-83
2022/03/23 01:59:28;;;;;;;67.68;27.40;;;;;;;5.31;82.34;103174.94;5090604;28;20064;-82
2022/03/23 02:01:58;;;;;;;64.88;26.52;;;;;;;5.26;82.22;103178.91;5081970;28;20088;-76
2022/03/23 02:04:27;;;;;;;65.35;26.27;;;;;;;5.25;81.88;103184.91;5078080;28;20048;-82
2022/03/23 02:06:56;;;;;;;56.45;26.67;;;;;;;5.23;82.57;103176.09;5087221;28;20044;-83
2022/03/23 02:09:26;;;;;;;60.72;27.85;;;;;;;5.19;82.26;103174.09;5083133;28;20076;-82
2022/03/23 02:11:55;;;;;;;64.35;26.88;;;;;;;5.19;82.41;103179.31;5084156;28;20421;-82
2022/03/23 02:14:28;;;;;;;59.05;26.75;;;;;;;5.13;82.13;103169.34;5085213;28;20072;-82
2022/03/23 02:17:06;;;;;;;64.38;26.40;;;;;;;5.12;82.49;103174.44;5086388;28;20500;-84
2022/03/23 02:19:35;;;;;;;59.20;25.95;;;;;;;5.07;82.43;103174.13;5073236;28;20054;-76
2022/03/23 02:22:05;;;;;;;67.28;27.33;;;;;;;5.06;82.56;103166.19;5080515;28;20059;-77
2022/03/23 02:24:35;;;;;;;65.93;28.00;;;;;;;5.05;82.70;103169.59;5062465;28;20075;-77
2022/03/23 02:27:04;;;;;;;53.75;26.58;;;;;;;5.00;82.60;103160.56;5075702;28;20138;-76
2022/03/23 02:29:34;;;;;;;64.65;27.52;;;;;;;4.98;82.67;103162.13;5080653;28;20040;-76
2022/03/23 02:32:04;;;;;;;57.55;26.50;;;;;;;4.92;82.85;103163.50;5080836;28;20195;-76
2022/03/23 02:34:33;;;;;;;70.13;29.48;;;;;;;4.95;83.24;103167.13;5069392;28;20048;-76
2022/03/23 02:37:02;;;;;;;73.88;28.52;;;;;;;4.86;83.15;103163.06;5056128;28;20043;-76
2022/03/23 02:39:37;;;;;;;69.13;27.27;;;;;;;4.83;82.81;103161.91;5082030;28;20483;-76
2022/03/23 02:42:06;;;;;;;65.65;27.55;;;;;;;4.82;82.96;103163.63;5076036;28;20060;-75
2022/03/23 02:44:34;;;;;;;62.95;26.10;;;;;;;4.80;83.04;103166.91;5075377;28;20155;-82
2022/03/23 02:47:04;;;;;;;63.65;27.10;;;;;;;4.76;82.88;103168.38;5081516;28;20047;-82
2022/03/23 02:49:33;;;;;;;61.55;26.00;;;;;;;4.71;82.67;103172.31;5081253;28;20056;-76
2022/03/23 02:52:01;;;;;;;66.45;28.33;;;;;;;4.74;83.56;103166.44;5075624;28;20055;-82
2022/03/23 03:03:26;;;;;;;58.72;25.67;;;;;;;4.53;82.96;103168.34;5078289;28;20152;-82
2022/03/23 03:05:57;;;;;;;60.58;27.67;;;;;;;4.49;82.69;103172.41;5086215;28;20087;-76
2022/03/23 03:11:11;;;;;;;70.55;28.52;;;;;;;4.42;83.05;103177.03;5069373;28;20173;-76
2022/03/23 03:13:48;;;;;;;56.55;25.10;;;;;;;4.39;83.12;103180.31;5082124;28;20052;-83
2022/03/23 03:16:18;;;;;;;56.08;27.17;;;;;;;4.35;82.96;103174.75;5075398;28;20044;-82
2022/03/23 03:18:48;;;;;;;61.90;26.38;;;;;;;4.32;83.16;103175.44;5083017;28;20052;-83
2022/03/23 03:21:17;;;;;;;65.65;28.63;;;;;;;4.30;82.92;103181.31;5086330;28;20079;-82
2022/03/23 03:23:47;;;;;;;66.40;29.00;;;;;;;4.31;84.67;103172.72;5075393;28;20075;-76
2022/03/23 03:26:17;;;;;;;57.88;26.45;;;;;;;4.28;83.98;103182.09;5074451;28;20032;-76
2022/03/23 03:28:50;;;;;;;65.93;28.50;;;;;;;4.27;84.24;103175.09;5072860;28;20495;-76
2022/03/23 03:31:33;;;;;;;58.67;25.88;;;;;;;4.25;84.45;103184.47;5075257;28;20084;-77
2022/03/23 03:34:10;;;;;;;70.75;27.60;;;;;;;4.21;84.33;103176.31;5075496;28;20048;-82
2022/03/23 03:36:38;;;;;;;67.20;28.10;;;;;;;4.19;84.36;103180.50;5076931;28;20044;-76
2022/03/23 03:39:08;;;;;;;68.60;28.70;;;;;;;4.16;84.15;103178.56;5075189;28;20490;-76
2022/03/23 03:41:39;;;;;;;66.20;27.80;;;;;;;4.12;84.54;103175.66;5066640;28;20184;-78
2022/03/23 03:44:11;;;;;;;64.10;28.13;;;;;;;4.09;84.35;103176.31;5074960;28;20529;-76
2022/03/23 03:46:40;;;;;;;72.28;28.45;;;;;;;4.06;84.22;103175.19;5074194;28;20204;-75
2022/03/23 03:49:09;;;;;;;68.20;27.35;;;;;;;3.98;84.06;103177.19;5075668;28;20059;-76
2022/03/23 03:51:38;;;;;;;62.33;27.50;;;;;;;3.96;84.23;103183.06;5072093;28;20488;-77
2022/03/23 03:54:06;;;;;;;76.40;30.67;;;;;;;3.98;85.12;103187.56;5079001;28;20113;-76
2022/03/23 03:56:34;;;;;;;70.45;29.08;;;;;;;3.90;84.53;103186.06;5076817;28;21167;-76
2022/03/23 03:59:01;;;;;;;84.07;32.15;;;;;;;3.87;84.49;103180.66;5052001;28;20051;-77
2022/03/23 04:01:31;;;;;;;71.80;28.70;;;;;;;3.83;84.49;103183.78;5061637;28;20062;-75
2022/03/23 04:04:00;;;;;;;66.07;26.67;;;;;;;3.79;85.03;103194.72;5067214;28;20067;-76
2022/03/23 04:06:29;;;;;;;63.35;29.08;;;;;;;3.76;84.26;103186.69;5073206;28;20480;-76
2022/03/23 04:08:58;;;;;;;67.70;29.35;;;;;;;3.73;84.60;103191.66;5072019;28;20437;-76
2022/03/23 04:11:27;;;;;;;75.53;30.00;;;;;;;3.73;84.95;103196.84;5065301;28;20129;-75
2022/03/23 04:13:55;;;;;;;69.13;28.25;;;;;;;3.68;85.20;103192.97;5075866;28;20071;-75
2022/03/23 04:16:24;;;;;;;67.93;27.23;;;;;;;3.69;85.47;103197.38;5074934;28;20059;-76
2022/03/23 04:18:57;;;;;;;76.78;30.75;;;;;;;3.63;85.73;103199.50;5071210;28;20044;-76
2022/03/23 04:21:25;;;;;;;73.47;30.25;;;;;;;3.61;85.97;103197.69;5075886;28;20040;-76
2022/03/23 04:23:54;;;;;;;73.57;29.27;;;;;;;3.61;85.18;103202.88;5070062;28;20055;-76
2022/03/23 04:26:22;;;;;;;71.30;28.35;;;;;;;3.51;84.85;103202.94;5077456;28;20079;-75
2022/03/23 04:28:54;;;;;;;64.38;28.70;;;;;;;3.52;85.29;103206.44;5072936;28;20298;-75
2022/03/23 04:31:36;;;;;;;59.90;24.83;;;;;;;3.46;85.26;103199.06;5078955;28;20053;-76
2022/03/23 04:34:09;;;;;;;73.53;30.77;;;;;;;3.47;85.83;103199.97;5072922;28;20048;-76
2022/03/23 04:36:38;;;;;;;77.03;31.90;;;;;;;3.42;85.40;103194.41;5074918;28;20059;-76
2022/03/23 04:39:09;;;;;;;81.75;29.00;;;;;;;3.40;85.56;103198.56;5072590;28;20050;-75
2022/03/23 04:41:38;;;;;;;77.25;31.45;;;;;;;3.45;86.00;103205.03;5077225;28;20041;-75
2022/03/23 04:44:06;;;;;;;74.18;30.05;;;;;;;3.43;85.83;103196.22;5076127;28;20220;-77
2022/03/23 04:46:35;;;;;;;72.03;28.85;;;;;;;3.40;85.59;103206.34;5079397;28;20051;-75
2022/03/23 04:49:04;;;;;;;72.43;28.60;;;;;;;3.39;85.67;103201.94;5072715;28;20059;-75
2022/03/23 04:51:34;;;;;;;71.63;32.35;;;;;;;3.45;86.42;103206.72;5071516;28;20048;-75
2022/03/23 04:54:02;;;;;;;71.38;31.73;;;;;;;3.42;86.03;103206.47;5068155;28;20488;-75
2022/03/23 04:56:30;;;;;;;75.68;31.77;;;;;;;3.43;87.03;103205.69;5075810;28;20125;-76
2022/03/23 04:59:00;;;;;;;79.32;32.95;;;;;;;3.39;86.26;103214.91;5068559;28;20129;-75
2022/03/23 05:01:28;;;;;;;73.20;29.58;;;;;;;3.41;86.96;103215.94;5071160;28;20756;-76
2022/03/23 05:03:59;;;;;;;75.75;30.05;;;;;;;3.38;86.51;103210.53;5071934;28;20059;-75
2022/03/23 05:06:28;;;;;;;70.38;29.08;;;;;;;3.35;85.99;103218.06;5076548;28;20040;-82
2022/03/23 05:08:57;;;;;;;81.85;30.80;;;;;;;3.35;86.43;103219.75;5080991;28;20078;-83
2022/03/23 05:11:25;;;;;;;67.43;29.75;;;;;;;3.31;86.22;103223.78;5080450;28;20051;-82
2022/03/23 05:13:53;;;;;;;70.25;29.95;;;;;;;3.25;85.67;103220.69;5070825;28;20168;-83
2022/03/23 05:16:21;;;;;;;72.72;29.63;;;;;;;3.21;86.24;103223.81;5072018;28;20059;-83
2022/03/23 05:18:49;;;;;;;66.28;30.08;;;;;;;3.28;87.19;103226.13;5066681;28;20043;-83
2022/03/23 05:21:23;;;;;;;71.68;29.55;;;;;;;3.24;86.55;103227.56;5083545;28;20056;-82
2022/03/23 05:23:52;;;;;;;74.57;32.50;;;;;;;3.19;86.43;103227.97;5084468;28;20040;-82
2022/03/23 05:26:22;;;;;;;77.43;34.00;;;;;;;3.22;86.95;103228.22;5080454;28;20090;-76
2022/03/23 05:28:50;;;;;;;83.55;30.80;;;;;;;3.20;86.94;103224.59;5074689;28;20052;-76
2022/03/23 05:31:18;;;;;;;65.05;28.77;;;;;;;3.17;86.91;103226.94;5070671;28;20051;-76
2022/03/23 05:33:46;;;;;;;74.65;30.50;;;;;;;3.09;86.25;103225.44;5069178;28;20071;-76
2022/03/23 05:36:14;;;;;;;76.95;29.15;;;;;;;3.08;86.78;103228.81;5089175;28;20063;-83
2022/03/23 05:38:44;;;;;;;70.72;29.52;;;;;;;3.06;87.22;103227.78;5091126;28;20159;-83
2022/03/23 05:41:12;;;;;;;70.60;28.70;;;;;;;3.04;87.40;103222.47;5093122;28;20068;-82
2022/03/23 05:43:41;;;;;;;71.68;28.85;;;;;;;3.01;86.65;103226.50;5087494;28;20074;-77
2022/03/23 05:46:10;;;;;;;66.22;25.33;;;;;;;3.00;86.61;103225.59;5081519;28;20075;-75
2022/03/23 05:48:38;;;;;;;67.53;27.52;;;;;;;3.00;86.45;103219.50;5060577;28;20163;-75
2022/03/23 05:51:07;;;;;;;85.18;33.22;;;;;;;3.01;87.30;103230.00;5074420;28;20071;-76
2022/03/23 05:53:36;;;;;;;77.07;30.40;;;;;;;2.99;86.64;103231.56;5078335;28;20047;-77
2022/03/23 05:56:07;;;;;;;83.28;31.70;;;;;;;3.01;87.06;103226.50;5070521;28;20077;-76
2022/03/23 05:58:35;;;;;;;70.97;29.23;;;;;;;3.00;86.57;103229.88;5073200;28;20134;-77
2022/03/23 06:01:06;;;;;;;61.40;27.20;;;;;;;3.02;86.67;103231.81;5074463;28;20070;-77
2022/03/23 06:03:35;;;;;;;69.38;28.02;;;;;;;3.04;87.04;103232.84;5083336;28;20437;-81
2022/03/23 06:06:03;;;;;;;71.50;28.42;;;;;;;3.06;87.02;103239.06;5082467;28;20159;-79
2022/03/23 06:08:32;;;;;;;77.80;30.20;;;;;;;3.14;87.40;103237.06;5076631;28;20040;-77
2022/03/23 06:11:00;;;;;;;73.30;28.27;;;;;;;3.16;86.93;103233.81;5078568;28;20663;-77
2022/03/23 06:13:32;;;;;;;69.35;29.52;;;;;;;3.21;87.23;103239.38;5078131;28;20127;-76
2022/03/23 06:16:07;;;;;;;75.25;30.83;;;;;;;3.29;87.03;103235.72;5074339;28;20051;-76
2022/03/23 06:18:41;;;;;;;69.93;30.48;;;;;;;3.36;87.21;103237.13;5079651;28;20043;-77
2022/03/23 06:21:15;;;;;;;72.95;29.52;;;;;;;3.39;87.16;103238.25;5079282;28;20044;-78
2022/03/23 06:23:55;;;;;;;73.38;29.80;;;;;;;3.41;87.05;103236.69;5063735;28;20521;-78
2022/03/23 06:26:25;;;;;;;74.70;31.92;;;;;;;3.45;87.17;103237.84;5077917;28;20574;-83
2022/03/23 06:28:53;;;;;;;73.07;31.48;;;;;;;3.63;87.29;103243.59;5090487;28;20049;-83
2022/03/23 06:31:23;;;;;;;80.63;30.27;;;;;;;3.66;86.57;103243.84;5089574;28;20048;-83
2022/03/23 06:33:51;;;;;;;72.68;29.83;;;;;;;3.78;86.64;103243.13;5086627;28;20056;-83
2022/03/23 06:36:20;;;;;;;84.28;33.08;;;;;;;3.98;86.62;103249.88;5078462;28;20174;-77
2022/03/23 06:38:50;;;;;;;76.63;32.20;;;;;;;3.91;86.64;103248.50;5058852;28;20067;-77
2022/03/23 06:41:19;;;;;;;76.55;30.73;;;;;;;4.04;86.70;103259.84;5078257;28;20055;-77
2022/03/23 06:43:46;;;;;;;75.88;30.60;;;;;;;4.15;86.56;103253.81;5075502;28;20101;-77
2022/03/23 06:46:18;;;;;;;86.78;33.88;;;;;;;4.28;86.66;103248.72;5065869;28;20060;-78
2022/03/23 06:48:52;;;;;;;84.88;33.70;;;;;;;4.35;86.61;103252.69;5076422;28;20142;-76
2022/03/23 06:51:20;;;;;;;80.63;33.03;;;;;;;4.34;85.94;103253.50;5060154;28;20058;-79
2022/03/23 06:53:49;;;;;;;86.32;33.45;;;;;;;4.35;86.21;103252.69;5075238;28;20127;-77
2022/03/23 06:56:18;;;;;;;85.50;32.92;;;;;;;4.45;86.26;103263.00;5071058;28;20047;-82
2022/03/23 06:58:47;;;;;;;101.15;33.17;;;;;;;4.52;85.73;103252.31;5080237;28;20044;-82
2022/03/23 07:01:17;;;;;;;91.22;34.25;;;;;;;4.63;85.70;103251.41;5080882;28;20039;-82
2022/03/23 07:03:54;;;;;;;71.25;30.95;;;;;;;4.68;85.76;103249.16;5083580;28;20402;-83
2022/03/23 07:06:23;;;;;;;105.85;37.67;;;;;;;4.85;85.13;103254.84;5072895;28;20039;-78
2022/03/23 07:11:40;;;;;;;79.55;32.45;;;;;;;5.09;84.96;103262.66;5074333;28;20052;-78
2022/03/23 07:14:08;;;;;;;89.40;37.15;;;;;;;5.28;84.58;103268.41;5078361;28;20105;-76
2022/03/23 07:16:38;;;;;;;101.22;36.22;;;;;;;5.43;84.00;103269.50;5073553;28;20119;-77
2022/03/23 07:19:11;;;;;;;97.05;34.30;;;;;;;5.62;83.71;103265.63;5074503;28;20044;-78
2022/03/23 07:21:40;;;;;;;75.93;32.72;;;;;;;5.86;83.35;103264.78;5076819;28;20040;-75
2022/03/23 07:24:10;;;;;;;96.13;33.90;;;;;;;6.14;81.77;103265.97;5076379;28;20545;-76
2022/03/23 07:26:38;;;;;;;75.32;31.90;;;;;;;6.38;81.49;103276.25;5074410;28;20040;-78
2022/03/23 07:29:07;;;;;;;103.57;37.22;;;;;;;6.61;80.21;103270.00;5076947;28;20045;-81
2022/03/23 07:31:35;;;;;;;95.63;34.95;;;;;;;6.84;79.60;103275.97;5076227;28;20529;-77
2022/03/23 07:34:04;;;;;;;100.63;37.30;;;;;;;7.12;78.42;103272.59;5073706;28;20079;-77
2022/03/23 07:36:40;;;;;;;88.80;35.30;;;;;;;7.38;78.29;103267.34;5074040;28;20046;-77
2022/03/23 07:39:08;;;;;;;83.88;33.83;;;;;;;7.66;76.68;103270.00;5078491;28;20047;-79
2022/03/23 07:41:42;;;;;;;88.57;34.28;;;;;;;7.92;75.26;103263.81;5060298;28;20048;-79
2022/03/23 07:44:13;;;;;;;93.38;35.90;;;;;;;8.19;73.10;103260.31;5077986;28;20048;-81
2022/03/23 07:46:41;;;;;;;87.93;32.28;;;;;;;8.48;74.40;103261.16;5080460;28;20094;-79
2022/03/23 07:49:10;;;;;;;91.22;34.92;;;;;;;8.69;71.55;103267.69;5077403;28;20077;-79
2022/03/23 07:51:41;;;;;;;88.05;33.97;;;;;;;8.95;70.04;103265.69;5079103;28;20311;-79
2022/03/23 07:54:11;;;;;;;80.85;31.52;;;;;;;9.18;69.79;103267.94;5078780;28;20048;-79
2022/03/23 07:56:46;;;;;;;79.15;31.75;;;;;;;9.45;69.23;103277.34;5082810;28;20052;-80
2022/03/23 07:59:14;;;;;;;80.35;30.77;;;;;;;9.64;66.21;103275.75;5059858;28;20058;-79
2022/03/23 08:01:45;;;;;;;85.63;32.28;;;;;;;9.79;64.85;103273.97;5073234;28;20108;-78
2022/03/23 08:04:15;;;;;;;86.78;32.45;;;;;;;9.80;62.92;103273.16;5070039;28;20097;-79
2022/03/23 08:06:45;;;;;;;72.88;30.05;;;;;;;9.99;62.22;103282.94;5075455;28;20239;-80
2022/03/23 08:09:13;;;;;;;73.50;32.17;;;;;;;10.28;63.77;103279.28;5075760;28;20857;-80
2022/03/23 08:11:42;;;;;;;75.07;30.05;;;;;;;10.39;61.97;103275.53;5060675;28;20052;-80
2022/03/23 08:14:11;;;;;;;69.30;30.05;;;;;;;10.60;61.49;103276.59;5077784;28;20524;-81
2022/03/23 08:16:41;;;;;;;71.70;29.83;;;;;;;10.76;61.24;103278.31;5078958;28;20078;-81
2022/03/23 08:19:10;;;;;;;72.82;30.30;;;;;;;10.91;60.53;103280.81;5073885;28;20044;-80
2022/03/23 08:21:38;;;;;;;63.75;27.23;;;;;;;11.03;58.83;103279.69;5067210;28;20067;-80
2022/03/23 08:24:08;;;;;;;65.13;28.95;;;;;;;11.05;57.20;103275.44;5070984;28;20127;-80
2022/03/23 08:26:39;;;;;;;68.72;28.23;;;;;;;11.15;56.01;103274.16;5068721;28;20043;-79
2022/03/23 08:29:08;;;;;;;63.88;26.60;;;;;;;11.39;56.46;103283.25;5074963;28;20122;-79
2022/03/23 08:31:36;;;;;;;63.28;26.48;;;;;;;11.45;56.74;103273.00;5068165;28;20044;-76
2022/03/23 08:34:05;;;;;;;69.68;28.60;;;;;;;11.66;55.90;103273.13;5070622;28;20435;-76
2022/03/23 08:36:34;;;;;;;66.60;28.50;;;;;;;11.66;54.43;103274.84;5073693;28;20166;-76
2022/03/23 08:39:03;;;;;;;61.72;26.40;;;;;;;11.81;52.90;103278.25;5057855;28;20412;-76
2022/03/23 08:41:36;;;;;;;63.67;27.92;;;;;;;11.89;53.29;103268.09;5071320;28;20060;-76
2022/03/23 08:44:06;;;;;;;66.05;28.83;;;;;;;12.04;52.53;103268.78;5075694;28;20088;-76
2022/03/23 08:46:35;;;;;;;63.90;26.70;;;;;;;12.10;52.01;103269.97;5065311;28;20104;-76
2022/03/23 08:49:04;;;;;;;59.88;26.02;;;;;;;12.20;51.87;103265.13;5076582;28;20063;-75
2022/03/23 08:51:32;;;;;;;64.70;28.23;;;;;;;12.23;51.92;103262.63;5072264;28;20047;-83
2022/03/23 08:54:02;;;;;;;79.22;28.45;;;;;;;12.36;51.16;103259.72;5079990;28;20052;-85
2022/03/23 08:56:30;;;;;;;65.47;27.23;;;;;;;12.48;50.97;103267.25;5093262;28;20097;-85
2022/03/23 08:59:00;;;;;;;60.63;26.52;;;;;;;12.64;51.25;103267.97;5088184;28;20036;-86
2022/03/23 09:01:28;;;;;;;61.88;27.25;;;;;;;12.82;51.57;103266.94;5080718;28;20248;-76
2022/03/23 09:04:01;;;;;;;65.70;26.38;;;;;;;12.82;50.50;103269.59;5075448;28;20055;-77
2022/03/23 09:06:29;;;;;;;63.33;26.53;;;;;;;12.94;49.36;103267.47;5072352;28;20047;-77
2022/03/23 09:08:57;;;;;;;60.55;27.35;;;;;;;13.05;49.45;103274.09;5078488;28;20051;-76
2022/03/23 09:11:25;;;;;;;59.05;27.83;;;;;;;13.05;49.12;103279.38;5081373;28;20060;-77
2022/03/23 09:13:54;;;;;;;54.38;25.05;;;;;;;13.21;47.24;103265.13;5081553;28;20047;-76
2022/03/23 09:16:26;;;;;;;56.05;25.75;;;;;;;13.37;46.46;103276.34;5085008;28;20094;-86
2022/03/23 09:18:56;;;;;;;59.38;26.65;;;;;;;13.47;46.89;103282.91;5088038;28;20058;-85
2022/03/23 09:21:24;;;;;;;58.97;26.67;;;;;;;13.59;46.19;103274.53;5087527;28;20044;-83
2022/03/23 09:23:52;;;;;;;59.55;24.95;;;;;;;13.73;46.15;103282.16;5085845;28;20056;-84
2022/03/23 09:26:21;;;;;;;61.53;26.33;;;;;;;13.86;46.09;103283.53;5083199;28;20540;-76
2022/03/23 09:28:51;;;;;;;59.40;24.15;;;;;;;14.11;45.88;103271.28;5080052;28;20051;-76
2022/03/23 09:31:19;;;;;;;59.28;25.80;;;;;;;14.12;46.01;103268.69;5075332;28;20036;-76
2022/03/23 09:33:49;;;;;;;57.05;25.35;;;;;;;14.01;45.44;103277.94;5069330;28;20048;-76
2022/03/23 09:37:47;;;;;;;62.95;27.33;;;;;;;14.21;45.32;103270.78;5084059;28;20444;-84
2022/03/23 09:39:12;;;;;;;54.10;26.23;;;;;;;14.30;44.74;103282.56;5077427;28;20047;-84
2022/03/23 09:41:41;;;;;;;55.70;27.38;;;;;;;14.47;44.64;103274.41;5088144;28;20044;-81
2022/03/23 09:44:09;;;;;;;55.25;26.10;;;;;;;14.69;44.86;103276.94;5082299;28;20086;-83
2022/03/23 09:46:38;;;;;;;61.50;26.85;;;;;;;14.56;43.85;103272.09;5087837;28;20086;-84
2022/03/23 09:49:07;;;;;;;57.38;26.83;;;;;;;14.53;43.18;103277.25;5088772;28;20052;-84
2022/03/23 09:51:38;;;;;;;53.63;26.23;;;;;;;14.89;43.79;103269.69;5088781;28;20040;-84
2022/03/23 09:54:08;;;;;;;63.05;27.30;;;;;;;14.97;43.05;103273.50;5088975;28;20051;-83
2022/03/23 09:56:39;;;;;;;57.90;27.38;;;;;;;15.12;42.98;103273.09;5084999;28;20048;-85
2022/03/23 09:59:10;;;;;;;58.55;26.80;;;;;;;15.25;42.35;103270.91;5085980;28;20075;-76
2022/03/23 10:02:30;;;;;;;56.28;27.55;;;;;;;15.15;42.41;103274.09;5076563;28;20131;-77
2022/03/23 10:05:35;;;;;;;55.25;25.90;;;;;;;15.45;42.21;103271.56;5077412;28;20044;-76
2022/03/23 10:08:45;;;;;;;60.47;25.08;;;;;;;15.29;40.72;103272.81;5076878;28;20056;-76
2022/03/23 10:12:07;;;;;;;57.38;27.63;;;;;;;15.25;41.47;103280.59;5026584;28;20048;-75
2022/03/23 10:15:22;;;;;;;57.13;25.33;;;;;;;15.53;42.26;103277.09;5074558;28;20044;-78
2022/03/23 10:18:10;;;;;;;57.22;26.40;;;;;;;15.57;42.20;103276.38;5080548;28;20084;-75
2022/03/23 10:20:39;;;;;;;53.90;26.60;;;;;;;15.63;41.81;103276.53;5080380;28;20114;-78
2022/03/23 10:23:09;;;;;;;56.28;27.20;;;;;;;15.62;41.29;103272.09;5073395;28;20045;-74
2022/03/23 10:25:40;;;;;;;59.67;28.92;;;;;;;15.66;41.59;103268.69;5068188;28;20468;-74
2022/03/23 10:28:13;;;;;;;62.47;27.17;;;;;;;15.97;41.33;103263.47;5076624;28;20044;-73
2022/03/23 10:30:43;;;;;;;;;;;;;;;15.87;41.41;103269.34;5078564;28;20032;-73
2022/03/23 10:33:19;;;;;;;51.85;24.95;;;;;;;16.20;39.79;103268.53;5077385;28;19961;-75
2022/03/23 10:35:49;;;;;;;54.65;27.05;;;;;;;16.25;40.83;103261.63;5075567;28;20043;-73
2022/03/23 10:38:19;;;;;;;54.85;26.20;;;;;;;16.27;39.75;103254.63;5075763;28;20055;-74
2022/03/23 10:40:49;;;;;;;56.08;27.27;;;;;;;16.30;39.79;103260.00;5072003;28;20086;-74
2022/03/23 10:43:21;;;;;;;58.10;27.83;;;;;;;16.48;39.59;103257.88;5069305;28;20147;-75
2022/03/23 10:45:49;;;;;;;58.17;28.23;;;;;;;16.36;39.88;103265.47;5069830;28;20080;-74
2022/03/23 10:48:19;;;;;;;49.00;28.00;;;;;;;16.55;40.32;103254.53;5062777;28;20058;-74
2022/03/23 10:50:53;;;;;;;55.95;28.60;;;;;;;16.72;40.07;103259.38;5074001;28;20449;-75
2022/03/23 10:53:35;;;;;;;53.40;27.42;;;;;;;16.92;39.94;103258.16;5073907;28;20048;-74
2022/03/23 10:56:04;;;;;;;53.30;27.08;;;;;;;16.84;39.47;103259.72;5075313;28;20392;-75
2022/03/23 10:58:34;;;;;;;58.28;27.00;;;;;;;17.05;39.66;103260.25;5072230;28;20052;-75
2022/03/23 11:01:05;;;;;;;53.55;28.33;;;;;;;16.88;39.64;103251.88;5076761;28;20070;-75
2022/03/23 11:03:39;;;;;;;50.28;26.23;;;;;;;17.15;39.57;103256.97;5070101;28;20852;-75
2022/03/23 11:06:09;;;;;;;;;;;;;;;17.22;40.62;103264.22;5072690;28;20639;-74
2022/03/23 11:08:38;;;;;;;50.67;27.27;;;;;;;17.60;39.35;103250.94;5074172;28;20274;-74
2022/03/23 11:16:45;;;;;;;50.63;25.35;;;;;;;17.56;38.26;103254.41;5066627;28;20048;-74
2022/03/23 11:19:19;;;;;;;50.10;26.17;;;;;;;17.51;38.79;103261.34;5069119;28;20040;-75
2022/03/23 11:22:06;;;;;;;52.53;25.98;;;;;;;17.71;38.59;103261.81;5077028;28;20051;-75
2022/03/23 11:24:36;;;;;;;49.33;25.20;;;;;;;17.91;38.24;103255.19;5071043;28;20098;-75
2022/03/23 11:27:06;;;;;;;58.72;27.05;;;;;;;17.94;39.14;103253.47;5067863;28;20051;-76
2022/03/23 11:29:35;;;;;;;57.47;27.73;;;;;;;17.83;38.88;103255.00;5072177;28;20052;-75
2022/03/23 11:32:08;;;;;;;51.35;26.42;;;;;;;17.94;37.86;103258.78;5074984;28;20066;-76
2022/03/23 11:34:37;;;;;;;56.80;28.67;;;;;;;17.94;38.34;103253.47;5076698;28;20251;-74
2022/03/23 11:37:08;;;;;;;51.50;26.85;;;;;;;17.87;38.18;103248.91;5078568;28;20119;-75
2022/03/23 11:39:38;;;;;;;64.10;28.80;;;;;;;17.87;37.68;103243.59;5072735;28;20040;-75
2022/03/23 11:42:07;;;;;;;53.50;28.63;;;;;;;18.03;38.07;103239.50;5075889;28;20086;-74
2022/03/23 11:44:36;;;;;;;54.55;27.42;;;;;;;18.05;36.55;103244.84;5064331;28;20054;-75
2022/03/23 11:47:08;;;;;;;58.15;27.27;;;;;;;18.10;35.47;103238.75;5072241;28;20101;-74
2022/03/23 11:49:48;;;;;;;53.75;27.00;;;;;;;18.03;36.31;103236.84;5068710;28;20039;-75
2022/03/23 11:52:31;;;;;;;50.03;25.63;;;;;;;18.44;37.01;103232.34;5065261;28;20058;-74